sensor_id;sensor_type;location;lat;lon;timestamp;P1;durP1;ratioP1;P2;durP2;ratioP2
51248;SDS011;39642;47.556;18.728;2023-02-05T00:02:07;7.03;;;1.75;;
51248;SDS011;39642;47.556;18.728;2023-02-05T00:04:34;6.50;;;1.70;;
51248;SDS011;39642;47.556;18.728;2023-02-05T00:07:02;5.70;;;1.70;;
51248;SDS011;39642;47.556;18.728;2023-02-05T00:09:29;5.82;;;1.90;;
51248;SDS011;39642;47.556;18.728;2023-02-05T00:11:55;6.35;;;1.70;;
51248;SDS011;39642;47.556;18.728;2023-02-05T00:14:22;5.95;;;1.73;;
51248;SDS011;39642;47.556;18.728;2023-02-05T00:16:49;5.87;;;1.73;;
51248;SDS011;39642;47.556;18.728;2023-02-05T00:19:16;7.20;;;2.03;;
51248;SDS011;39642;47.556;18.728;2023-02-05T00:21:42;6.18;;;1.92;;
51248;SDS011;39642;47.556;18.728;2023-02-05T00:24:09;5.97;;;1.80;;
51248;SDS011;39642;47.556;18.728;2023-02-05T00:26:36;7.07;;;1.92;;
51248;SDS011;39642;47.556;18.728;2023-02-05T00:29:02;6.30;;;1.90;;
51248;SDS011;39642;47.556;18.728;2023-02-05T00:31:29;6.45;;;1.85;;
51248;SDS011;39642;47.556;18.728;2023-02-05T00:33:55;6.57;;;2.00;;
51248;SDS011;39642;47.556;18.728;2023-02-05T00:36:22;7.07;;;1.80;;
51248;SDS011;39642;47.556;18.728;2023-02-05T00:38:49;5.45;;;1.77;;
51248;SDS011;39642;47.556;18.728;2023-02-05T00:41:16;6.22;;;1.80;;
51248;SDS011;39642;47.556;18.728;2023-02-05T00:43:42;6.28;;;1.90;;
51248;SDS011;39642;47.556;18.728;2023-02-05T00:46:08;5.87;;;1.75;;
51248;SDS011;39642;47.556;18.728;2023-02-05T00:48:35;5.97;;;1.85;;
51248;SDS011;39642;47.556;18.728;2023-02-05T00:51:01;6.45;;;1.80;;
51248;SDS011;39642;47.556;18.728;2023-02-05T00:53:27;5.47;;;1.73;;
51248;SDS011;39642;47.556;18.728;2023-02-05T00:55:53;5.57;;;1.80;;
51248;SDS011;39642;47.556;18.728;2023-02-05T00:58:20;4.85;;;1.55;;
51248;SDS011;39642;47.556;18.728;2023-02-05T01:00:46;7.60;;;2.10;;
51248;SDS011;39642;47.556;18.728;2023-02-05T01:03:12;6.18;;;1.83;;
51248;SDS011;39642;47.556;18.728;2023-02-05T01:05:38;6.20;;;1.65;;
51248;SDS011;39642;47.556;18.728;2023-02-05T01:08:05;5.97;;;1.80;;
51248;SDS011;39642;47.556;18.728;2023-02-05T01:10:32;6.15;;;1.70;;
51248;SDS011;39642;47.556;18.728;2023-02-05T01:12:58;6.40;;;1.87;;
51248;SDS011;39642;47.556;18.728;2023-02-05T01:15:24;8.23;;;2.00;;
51248;SDS011;39642;47.556;18.728;2023-02-05T01:17:51;6.57;;;1.90;;
51248;SDS011;39642;47.556;18.728;2023-02-05T01:20:17;5.62;;;1.80;;
51248;SDS011;39642;47.556;18.728;2023-02-05T01:22:43;7.22;;;1.80;;
51248;SDS011;39642;47.556;18.728;2023-02-05T01:25:09;5.70;;;1.83;;
51248;SDS011;39642;47.556;18.728;2023-02-05T01:27:35;6.47;;;1.90;;
51248;SDS011;39642;47.556;18.728;2023-02-05T01:30:02;6.12;;;1.80;;
51248;SDS011;39642;47.556;18.728;2023-02-05T01:32:29;6.97;;;1.92;;
51248;SDS011;39642;47.556;18.728;2023-02-05T01:34:55;5.72;;;1.70;;
51248;SDS011;39642;47.556;18.728;2023-02-05T01:37:21;7.43;;;2.00;;
51248;SDS011;39642;47.556;18.728;2023-02-05T01:39:47;6.03;;;1.80;;
51248;SDS011;39642;47.556;18.728;2023-02-05T01:42:17;4.95;;;1.60;;
51248;SDS011;39642;47.556;18.728;2023-02-05T01:50:32;6.35;;;1.73;;
51248;SDS011;39642;47.556;18.728;2023-02-05T01:53:13;6.57;;;1.75;;
51248;SDS011;39642;47.556;18.728;2023-02-05T01:58:12;5.80;;;1.62;;
51248;SDS011;39642;47.556;18.728;2023-02-05T02:00:38;5.97;;;1.70;;
51248;SDS011;39642;47.556;18.728;2023-02-05T02:03:04;5.85;;;1.80;;
51248;SDS011;39642;47.556;18.728;2023-02-05T02:05:30;6.78;;;2.00;;
51248;SDS011;39642;47.556;18.728;2023-02-05T02:07:56;7.18;;;1.98;;
51248;SDS011;39642;47.556;18.728;2023-02-05T02:10:22;6.82;;;1.70;;
51248;SDS011;39642;47.556;18.728;2023-02-05T02:12:49;7.15;;;1.90;;
51248;SDS011;39642;47.556;18.728;2023-02-05T02:15:17;6.35;;;1.67;;
51248;SDS011;39642;47.556;18.728;2023-02-05T02:17:48;5.30;;;1.70;;
51248;SDS011;39642;47.556;18.728;2023-02-05T02:20:18;7.93;;;1.95;;
51248;SDS011;39642;47.556;18.728;2023-02-05T02:31:12;6.03;;;1.80;;
51248;SDS011;39642;47.556;18.728;2023-02-05T02:33:45;6.78;;;1.80;;
51248;SDS011;39642;47.556;18.728;2023-02-05T02:36:16;6.53;;;1.77;;
51248;SDS011;39642;47.556;18.728;2023-02-05T02:39:12;5.60;;;1.70;;
51248;SDS011;39642;47.556;18.728;2023-02-05T02:41:49;6.68;;;1.90;;
51248;SDS011;39642;47.556;18.728;2023-02-05T02:44:24;6.32;;;1.85;;
51248;SDS011;39642;47.556;18.728;2023-02-05T02:46:55;7.87;;;1.83;;
51248;SDS011;39642;47.556;18.728;2023-02-05T02:49:25;7.12;;;1.80;;
51248;SDS011;39642;47.556;18.728;2023-02-05T02:51:55;5.35;;;1.70;;
51248;SDS011;39642;47.556;18.728;2023-02-05T02:54:24;6.68;;;1.80;;
51248;SDS011;39642;47.556;18.728;2023-02-05T02:56:51;6.47;;;1.90;;
51248;SDS011;39642;47.556;18.728;2023-02-05T02:59:17;5.80;;;1.67;;
51248;SDS011;39642;47.556;18.728;2023-02-05T03:01:48;6.82;;;1.80;;
51248;SDS011;39642;47.556;18.728;2023-02-05T03:07:01;6.07;;;1.75;;
51248;SDS011;39642;47.556;18.728;2023-02-05T03:09:45;5.93;;;1.90;;
51248;SDS011;39642;47.556;18.728;2023-02-05T03:12:13;5.53;;;1.70;;
51248;SDS011;39642;47.556;18.728;2023-02-05T03:14:40;6.53;;;1.80;;
51248;SDS011;39642;47.556;18.728;2023-02-05T03:17:05;5.80;;;1.70;;
51248;SDS011;39642;47.556;18.728;2023-02-05T03:19:31;6.57;;;1.87;;
51248;SDS011;39642;47.556;18.728;2023-02-05T03:22:03;6.60;;;1.80;;
51248;SDS011;39642;47.556;18.728;2023-02-05T03:24:30;6.78;;;2.10;;
51248;SDS011;39642;47.556;18.728;2023-02-05T03:26:57;6.53;;;1.90;;
51248;SDS011;39642;47.556;18.728;2023-02-05T03:29:27;6.60;;;1.77;;
51248;SDS011;39642;47.556;18.728;2023-02-05T03:37:18;5.55;;;1.75;;
51248;SDS011;39642;47.556;18.728;2023-02-05T03:45:27;7.20;;;1.90;;
51248;SDS011;39642;47.556;18.728;2023-02-05T03:50:29;6.40;;;1.80;;
51248;SDS011;39642;47.556;18.728;2023-02-05T03:53:25;7.72;;;2.00;;
51248;SDS011;39642;47.556;18.728;2023-02-05T03:56:12;7.60;;;1.90;;
51248;SDS011;39642;47.556;18.728;2023-02-05T03:58:47;7.07;;;1.67;;
51248;SDS011;39642;47.556;18.728;2023-02-05T04:01:16;6.40;;;1.80;;
51248;SDS011;39642;47.556;18.728;2023-02-05T04:03:43;6.65;;;1.70;;
51248;SDS011;39642;47.556;18.728;2023-02-05T04:06:09;6.60;;;1.73;;
51248;SDS011;39642;47.556;18.728;2023-02-05T04:08:35;7.07;;;1.90;;
51248;SDS011;39642;47.556;18.728;2023-02-05T04:11:01;7.80;;;1.77;;
51248;SDS011;39642;47.556;18.728;2023-02-05T04:13:27;5.78;;;1.60;;
51248;SDS011;39642;47.556;18.728;2023-02-05T04:15:52;6.70;;;1.73;;
51248;SDS011;39642;47.556;18.728;2023-02-05T04:18:18;6.45;;;1.85;;
51248;SDS011;39642;47.556;18.728;2023-02-05T04:20:44;9.25;;;2.10;;
51248;SDS011;39642;47.556;18.728;2023-02-05T04:23:10;5.82;;;1.70;;
51248;SDS011;39642;47.556;18.728;2023-02-05T04:25:37;7.62;;;2.10;;
51248;SDS011;39642;47.556;18.728;2023-02-05T04:28:03;7.32;;;1.98;;
51248;SDS011;39642;47.556;18.728;2023-02-05T04:30:33;6.12;;;1.90;;
51248;SDS011;39642;47.556;18.728;2023-02-05T04:32:59;8.48;;;1.83;;
51248;SDS011;39642;47.556;18.728;2023-02-05T04:35:25;5.00;;;1.67;;
51248;SDS011;39642;47.556;18.728;2023-02-05T04:37:51;6.10;;;1.90;;
51248;SDS011;39642;47.556;18.728;2023-02-05T04:40:17;6.93;;;1.90;;
51248;SDS011;39642;47.556;18.728;2023-02-05T04:42:43;6.70;;;1.90;;
51248;SDS011;39642;47.556;18.728;2023-02-05T04:45:10;6.12;;;1.90;;
51248;SDS011;39642;47.556;18.728;2023-02-05T04:47:36;5.65;;;1.80;;
51248;SDS011;39642;47.556;18.728;2023-02-05T04:50:02;6.25;;;1.90;;
51248;SDS011;39642;47.556;18.728;2023-02-05T04:52:28;6.75;;;1.80;;
51248;SDS011;39642;47.556;18.728;2023-02-05T04:54:55;7.82;;;1.80;;
51248;SDS011;39642;47.556;18.728;2023-02-05T04:57:20;6.93;;;1.90;;
51248;SDS011;39642;47.556;18.728;2023-02-05T04:59:48;5.43;;;1.75;;
51248;SDS011;39642;47.556;18.728;2023-02-05T05:02:14;7.10;;;1.98;;
51248;SDS011;39642;47.556;18.728;2023-02-05T05:04:40;6.22;;;1.90;;
51248;SDS011;39642;47.556;18.728;2023-02-05T05:07:07;5.65;;;1.80;;
51248;SDS011;39642;47.556;18.728;2023-02-05T05:09:34;6.55;;;1.70;;
51248;SDS011;39642;47.556;18.728;2023-02-05T05:12:01;7.30;;;1.90;;
51248;SDS011;39642;47.556;18.728;2023-02-05T05:14:27;8.07;;;1.90;;
51248;SDS011;39642;47.556;18.728;2023-02-05T05:16:53;6.65;;;1.70;;
51248;SDS011;39642;47.556;18.728;2023-02-05T05:19:19;6.22;;;1.90;;
51248;SDS011;39642;47.556;18.728;2023-02-05T05:21:45;6.20;;;2.00;;
51248;SDS011;39642;47.556;18.728;2023-02-05T05:24:11;7.03;;;1.90;;
51248;SDS011;39642;47.556;18.728;2023-02-05T05:26:37;7.18;;;1.90;;
51248;SDS011;39642;47.556;18.728;2023-02-05T05:29:09;5.12;;;1.70;;
51248;SDS011;39642;47.556;18.728;2023-02-05T05:31:36;6.53;;;2.00;;
51248;SDS011;39642;47.556;18.728;2023-02-05T05:34:02;6.72;;;1.87;;
51248;SDS011;39642;47.556;18.728;2023-02-05T05:36:28;6.43;;;1.87;;
51248;SDS011;39642;47.556;18.728;2023-02-05T05:38:54;7.32;;;2.00;;
51248;SDS011;39642;47.556;18.728;2023-02-05T05:41:21;7.00;;;1.90;;
51248;SDS011;39642;47.556;18.728;2023-02-05T05:44:07;7.15;;;1.80;;
51248;SDS011;39642;47.556;18.728;2023-02-05T05:46:34;6.07;;;1.83;;
51248;SDS011;39642;47.556;18.728;2023-02-05T05:49:01;6.62;;;1.90;;
51248;SDS011;39642;47.556;18.728;2023-02-05T05:51:28;6.15;;;1.70;;
51248;SDS011;39642;47.556;18.728;2023-02-05T05:53:55;6.20;;;1.77;;
51248;SDS011;39642;47.556;18.728;2023-02-05T05:56:22;6.40;;;2.00;;
51248;SDS011;39642;47.556;18.728;2023-02-05T05:58:48;6.07;;;1.80;;
51248;SDS011;39642;47.556;18.728;2023-02-05T06:01:15;6.18;;;1.83;;
51248;SDS011;39642;47.556;18.728;2023-02-05T06:03:41;6.57;;;1.80;;
51248;SDS011;39642;47.556;18.728;2023-02-05T06:06:07;6.50;;;1.95;;
51248;SDS011;39642;47.556;18.728;2023-02-05T06:08:36;6.18;;;1.87;;
51248;SDS011;39642;47.556;18.728;2023-02-05T06:11:02;6.18;;;1.80;;
51248;SDS011;39642;47.556;18.728;2023-02-05T06:13:28;4.93;;;1.70;;
51248;SDS011;39642;47.556;18.728;2023-02-05T06:15:54;5.95;;;1.80;;
51248;SDS011;39642;47.556;18.728;2023-02-05T06:18:20;6.45;;;1.80;;
51248;SDS011;39642;47.556;18.728;2023-02-05T06:20:46;6.78;;;1.95;;
51248;SDS011;39642;47.556;18.728;2023-02-05T06:23:12;5.47;;;1.80;;
51248;SDS011;39642;47.556;18.728;2023-02-05T06:25:38;6.90;;;1.90;;
51248;SDS011;39642;47.556;18.728;2023-02-05T06:28:04;5.72;;;1.73;;
51248;SDS011;39642;47.556;18.728;2023-02-05T06:30:30;6.18;;;1.80;;
51248;SDS011;39642;47.556;18.728;2023-02-05T06:32:56;7.25;;;1.90;;
51248;SDS011;39642;47.556;18.728;2023-02-05T06:35:22;5.97;;;1.77;;
51248;SDS011;39642;47.556;18.728;2023-02-05T06:37:48;6.57;;;1.80;;
51248;SDS011;39642;47.556;18.728;2023-02-05T06:40:14;7.97;;;2.20;;
51248;SDS011;39642;47.556;18.728;2023-02-05T06:42:42;6.53;;;1.77;;
51248;SDS011;39642;47.556;18.728;2023-02-05T06:45:09;5.85;;;1.80;;
51248;SDS011;39642;47.556;18.728;2023-02-05T06:47:36;6.35;;;1.90;;
51248;SDS011;39642;47.556;18.728;2023-02-05T06:50:03;6.20;;;1.80;;
51248;SDS011;39642;47.556;18.728;2023-02-05T06:52:31;6.82;;;2.00;;
51248;SDS011;39642;47.556;18.728;2023-02-05T06:54:57;5.47;;;1.80;;
51248;SDS011;39642;47.556;18.728;2023-02-05T06:57:23;6.72;;;1.90;;
51248;SDS011;39642;47.556;18.728;2023-02-05T06:59:49;5.70;;;1.90;;
51248;SDS011;39642;47.556;18.728;2023-02-05T07:02:15;7.32;;;1.87;;
51248;SDS011;39642;47.556;18.728;2023-02-05T07:04:41;6.47;;;1.90;;
51248;SDS011;39642;47.556;18.728;2023-02-05T07:07:06;4.78;;;1.70;;
51248;SDS011;39642;47.556;18.728;2023-02-05T07:09:32;6.43;;;1.77;;
51248;SDS011;39642;47.556;18.728;2023-02-05T07:11:58;6.57;;;1.90;;
51248;SDS011;39642;47.556;18.728;2023-02-05T07:14:24;6.45;;;1.90;;
51248;SDS011;39642;47.556;18.728;2023-02-05T07:16:50;6.10;;;1.80;;
51248;SDS011;39642;47.556;18.728;2023-02-05T07:19:16;6.07;;;2.00;;
51248;SDS011;39642;47.556;18.728;2023-02-05T07:21:42;7.22;;;2.10;;
51248;SDS011;39642;47.556;18.728;2023-02-05T07:24:08;7.15;;;1.90;;
51248;SDS011;39642;47.556;18.728;2023-02-05T07:26:34;7.50;;;2.00;;
51248;SDS011;39642;47.556;18.728;2023-02-05T07:29:00;7.82;;;2.03;;
51248;SDS011;39642;47.556;18.728;2023-02-05T07:31:27;8.15;;;2.10;;
51248;SDS011;39642;47.556;18.728;2023-02-05T07:33:52;6.93;;;1.87;;
51248;SDS011;39642;47.556;18.728;2023-02-05T07:36:18;7.37;;;2.00;;
51248;SDS011;39642;47.556;18.728;2023-02-05T07:38:45;6.60;;;2.10;;
51248;SDS011;39642;47.556;18.728;2023-02-05T07:41:12;6.45;;;1.75;;
51248;SDS011;39642;47.556;18.728;2023-02-05T07:43:39;6.70;;;1.87;;
51248;SDS011;39642;47.556;18.728;2023-02-05T07:46:07;7.43;;;2.00;;
51248;SDS011;39642;47.556;18.728;2023-02-05T07:48:37;7.07;;;1.95;;
51248;SDS011;39642;47.556;18.728;2023-02-05T07:51:03;7.87;;;2.22;;
51248;SDS011;39642;47.556;18.728;2023-02-05T07:53:30;7.55;;;2.20;;
51248;SDS011;39642;47.556;18.728;2023-02-05T07:56:00;7.57;;;2.20;;
51248;SDS011;39642;47.556;18.728;2023-02-05T07:58:27;7.30;;;1.92;;
51248;SDS011;39642;47.556;18.728;2023-02-05T08:00:53;6.93;;;2.00;;
51248;SDS011;39642;47.556;18.728;2023-02-05T08:03:19;6.55;;;2.20;;
51248;SDS011;39642;47.556;18.728;2023-02-05T08:05:45;6.45;;;1.85;;
51248;SDS011;39642;47.556;18.728;2023-02-05T08:08:10;6.97;;;1.83;;
51248;SDS011;39642;47.556;18.728;2023-02-05T08:10:37;6.32;;;1.90;;
51248;SDS011;39642;47.556;18.728;2023-02-05T08:13:02;7.47;;;2.05;;
51248;SDS011;39642;47.556;18.728;2023-02-05T08:15:28;7.32;;;1.80;;
51248;SDS011;39642;47.556;18.728;2023-02-05T08:17:54;6.00;;;1.90;;
51248;SDS011;39642;47.556;18.728;2023-02-05T08:20:20;7.45;;;2.00;;
51248;SDS011;39642;47.556;18.728;2023-02-05T08:22:46;6.55;;;2.05;;
51248;SDS011;39642;47.556;18.728;2023-02-05T08:25:12;6.35;;;1.80;;
51248;SDS011;39642;47.556;18.728;2023-02-05T08:27:40;6.00;;;1.85;;
51248;SDS011;39642;47.556;18.728;2023-02-05T08:30:08;7.07;;;1.90;;
51248;SDS011;39642;47.556;18.728;2023-02-05T08:32:36;7.15;;;1.92;;
51248;SDS011;39642;47.556;18.728;2023-02-05T08:35:02;6.22;;;1.90;;
51248;SDS011;39642;47.556;18.728;2023-02-05T08:37:28;6.43;;;1.90;;
51248;SDS011;39642;47.556;18.728;2023-02-05T08:39:54;6.85;;;1.85;;
51248;SDS011;39642;47.556;18.728;2023-02-05T08:42:20;7.00;;;1.90;;
51248;SDS011;39642;47.556;18.728;2023-02-05T08:44:46;6.03;;;1.90;;
51248;SDS011;39642;47.556;18.728;2023-02-05T08:47:13;5.87;;;1.90;;
51248;SDS011;39642;47.556;18.728;2023-02-05T08:49:39;6.90;;;1.90;;
51248;SDS011;39642;47.556;18.728;2023-02-05T08:52:05;6.18;;;1.85;;
51248;SDS011;39642;47.556;18.728;2023-02-05T08:54:31;6.07;;;1.83;;
51248;SDS011;39642;47.556;18.728;2023-02-05T08:56:57;7.70;;;2.25;;
51248;SDS011;39642;47.556;18.728;2023-02-05T08:59:22;6.50;;;2.10;;
51248;SDS011;39642;47.556;18.728;2023-02-05T09:01:48;6.68;;;1.98;;
51248;SDS011;39642;47.556;18.728;2023-02-05T09:04:15;7.43;;;2.00;;
51248;SDS011;39642;47.556;18.728;2023-02-05T09:06:42;7.87;;;2.10;;
51248;SDS011;39642;47.556;18.728;2023-02-05T09:09:08;7.62;;;1.98;;
51248;SDS011;39642;47.556;18.728;2023-02-05T09:11:35;8.23;;;2.28;;
51248;SDS011;39642;47.556;18.728;2023-02-05T09:14:01;7.20;;;1.90;;
51248;SDS011;39642;47.556;18.728;2023-02-05T09:16:27;7.60;;;2.03;;
51248;SDS011;39642;47.556;18.728;2023-02-05T09:18:53;6.18;;;1.87;;
51248;SDS011;39642;47.556;18.728;2023-02-05T09:21:20;7.45;;;1.90;;
51248;SDS011;39642;47.556;18.728;2023-02-05T09:23:46;7.78;;;2.10;;
51248;SDS011;39642;47.556;18.728;2023-02-05T09:26:12;8.40;;;2.12;;
51248;SDS011;39642;47.556;18.728;2023-02-05T09:28:38;7.55;;;2.10;;
51248;SDS011;39642;47.556;18.728;2023-02-05T09:31:05;7.05;;;2.05;;
51248;SDS011;39642;47.556;18.728;2023-02-05T09:33:36;7.65;;;2.10;;
51248;SDS011;39642;47.556;18.728;2023-02-05T09:36:10;6.95;;;1.80;;
51248;SDS011;39642;47.556;18.728;2023-02-05T09:38:38;7.60;;;2.20;;
51248;SDS011;39642;47.556;18.728;2023-02-05T09:51:41;6.70;;;2.10;;
51248;SDS011;39642;47.556;18.728;2023-02-05T09:54:12;6.15;;;1.90;;
51248;SDS011;39642;47.556;18.728;2023-02-05T09:56:55;7.97;;;2.20;;
51248;SDS011;39642;47.556;18.728;2023-02-05T09:59:25;6.90;;;2.15;;
51248;SDS011;39642;47.556;18.728;2023-02-05T10:01:57;6.43;;;1.90;;
51248;SDS011;39642;47.556;18.728;2023-02-05T10:04:24;7.03;;;2.17;;
51248;SDS011;39642;47.556;18.728;2023-02-05T10:07:08;8.07;;;2.33;;
51248;SDS011;39642;47.556;18.728;2023-02-05T10:18:10;8.90;;;2.12;;
51248;SDS011;39642;47.556;18.728;2023-02-05T10:23:16;7.87;;;2.25;;
51248;SDS011;39642;47.556;18.728;2023-02-05T10:36:38;6.70;;;2.08;;
51248;SDS011;39642;47.556;18.728;2023-02-05T10:39:05;7.97;;;2.25;;
51248;SDS011;39642;47.556;18.728;2023-02-05T10:41:39;7.78;;;2.08;;
51248;SDS011;39642;47.556;18.728;2023-02-05T10:44:16;8.38;;;2.20;;
51248;SDS011;39642;47.556;18.728;2023-02-05T10:46:51;6.25;;;2.03;;
51248;SDS011;39642;47.556;18.728;2023-02-05T10:49:25;6.78;;;2.00;;
51248;SDS011;39642;47.556;18.728;2023-02-05T10:51:55;7.62;;;2.20;;
51248;SDS011;39642;47.556;18.728;2023-02-05T10:54:28;7.53;;;2.15;;
51248;SDS011;39642;47.556;18.728;2023-02-05T10:56:56;8.02;;;2.30;;
51248;SDS011;39642;47.556;18.728;2023-02-05T10:59:29;6.70;;;2.10;;
51248;SDS011;39642;47.556;18.728;2023-02-05T11:02:03;7.82;;;2.20;;
51248;SDS011;39642;47.556;18.728;2023-02-05T11:07:26;6.50;;;1.98;;
51248;SDS011;39642;47.556;18.728;2023-02-05T11:10:11;7.62;;;2.28;;
51248;SDS011;39642;47.556;18.728;2023-02-05T11:12:41;8.05;;;2.37;;
51248;SDS011;39642;47.556;18.728;2023-02-05T11:15:17;6.07;;;1.95;;
51248;SDS011;39642;47.556;18.728;2023-02-05T11:17:49;6.85;;;2.25;;
51248;SDS011;39642;47.556;18.728;2023-02-05T11:22:43;8.32;;;2.30;;
51248;SDS011;39642;47.556;18.728;2023-02-05T11:25:15;7.55;;;2.15;;
51248;SDS011;39642;47.556;18.728;2023-02-05T11:27:52;8.07;;;2.03;;
51248;SDS011;39642;47.556;18.728;2023-02-05T11:32:57;7.20;;;2.10;;
51248;SDS011;39642;47.556;18.728;2023-02-05T11:35:25;7.50;;;2.10;;
51248;SDS011;39642;47.556;18.728;2023-02-05T11:37:59;6.93;;;2.22;;
51248;SDS011;39642;47.556;18.728;2023-02-05T11:40:34;6.30;;;1.83;;
51248;SDS011;39642;47.556;18.728;2023-02-05T11:43:16;7.47;;;2.05;;
51248;SDS011;39642;47.556;18.728;2023-02-05T11:45:46;8.13;;;2.30;;
51248;SDS011;39642;47.556;18.728;2023-02-05T11:48:31;8.25;;;2.35;;
51248;SDS011;39642;47.556;18.728;2023-02-05T11:50:57;6.80;;;2.03;;
51248;SDS011;39642;47.556;18.728;2023-02-05T11:53:24;7.15;;;2.10;;
51248;SDS011;39642;47.556;18.728;2023-02-05T11:55:51;7.25;;;2.28;;
51248;SDS011;39642;47.556;18.728;2023-02-05T11:58:24;7.25;;;2.10;;
51248;SDS011;39642;47.556;18.728;2023-02-05T12:01:38;7.90;;;2.15;;
51248;SDS011;39642;47.556;18.728;2023-02-05T12:03:59;6.62;;;2.10;;
51248;SDS011;39642;47.556;18.728;2023-02-05T12:06:38;8.27;;;2.28;;
51248;SDS011;39642;47.556;18.728;2023-02-05T12:09:08;7.82;;;2.25;;
51248;SDS011;39642;47.556;18.728;2023-02-05T12:14:34;6.47;;;1.98;;
51248;SDS011;39642;47.556;18.728;2023-02-05T12:19:55;6.18;;;2.00;;
51248;SDS011;39642;47.556;18.728;2023-02-05T12:25:38;8.70;;;2.35;;
51248;SDS011;39642;47.556;18.728;2023-02-05T12:28:38;6.97;;;2.05;;
51248;SDS011;39642;47.556;18.728;2023-02-05T12:36:54;7.25;;;2.10;;
51248;SDS011;39642;47.556;18.728;2023-02-05T12:42:14;7.70;;;2.30;;
51248;SDS011;39642;47.556;18.728;2023-02-05T12:52:46;7.30;;;2.30;;
51248;SDS011;39642;47.556;18.728;2023-02-05T12:58:10;7.95;;;2.03;;
51248;SDS011;39642;47.556;18.728;2023-02-05T13:03:31;8.05;;;2.37;;
51248;SDS011;39642;47.556;18.728;2023-02-05T13:09:32;7.57;;;2.40;;
51248;SDS011;39642;47.556;18.728;2023-02-05T13:11:33;6.40;;;1.98;;
51248;SDS011;39642;47.556;18.728;2023-02-05T13:14:07;8.27;;;2.30;;
51248;SDS011;39642;47.556;18.728;2023-02-05T13:16:44;7.40;;;2.12;;
51248;SDS011;39642;47.556;18.728;2023-02-05T13:19:21;6.87;;;2.20;;
51248;SDS011;39642;47.556;18.728;2023-02-05T13:21:49;6.82;;;2.22;;
51248;SDS011;39642;47.556;18.728;2023-02-05T13:24:39;7.28;;;2.17;;
51248;SDS011;39642;47.556;18.728;2023-02-05T13:27:34;7.35;;;2.20;;
51248;SDS011;39642;47.556;18.728;2023-02-05T13:33:22;6.85;;;2.03;;
51248;SDS011;39642;47.556;18.728;2023-02-05T13:35:53;6.68;;;2.10;;
51248;SDS011;39642;47.556;18.728;2023-02-05T13:41:34;7.70;;;2.08;;
51248;SDS011;39642;47.556;18.728;2023-02-05T13:50:21;7.62;;;2.20;;
51248;SDS011;39642;47.556;18.728;2023-02-05T13:53:09;7.22;;;2.00;;
51248;SDS011;39642;47.556;18.728;2023-02-05T13:55:44;7.72;;;2.10;;
51248;SDS011;39642;47.556;18.728;2023-02-05T13:58:34;6.95;;;2.08;;
51248;SDS011;39642;47.556;18.728;2023-02-05T14:01:13;7.47;;;2.08;;
51248;SDS011;39642;47.556;18.728;2023-02-05T14:03:55;6.12;;;1.80;;
51248;SDS011;39642;47.556;18.728;2023-02-05T14:06:28;6.78;;;2.10;;
51248;SDS011;39642;47.556;18.728;2023-02-05T14:09:00;6.72;;;2.10;;
51248;SDS011;39642;47.556;18.728;2023-02-05T14:11:51;7.10;;;2.15;;
51248;SDS011;39642;47.556;18.728;2023-02-05T14:16:58;7.93;;;2.28;;
51248;SDS011;39642;47.556;18.728;2023-02-05T14:19:25;7.72;;;2.33;;
51248;SDS011;39642;47.556;18.728;2023-02-05T14:22:56;7.43;;;2.30;;
51248;SDS011;39642;47.556;18.728;2023-02-05T14:27:50;8.55;;;2.25;;
51248;SDS011;39642;47.556;18.728;2023-02-05T14:32:55;7.32;;;2.20;;
51248;SDS011;39642;47.556;18.728;2023-02-05T14:35:30;6.80;;;2.10;;
51248;SDS011;39642;47.556;18.728;2023-02-05T14:38:14;7.43;;;2.22;;
51248;SDS011;39642;47.556;18.728;2023-02-05T14:40:56;6.80;;;2.00;;
51248;SDS011;39642;47.556;18.728;2023-02-05T14:43:33;7.95;;;2.30;;
51248;SDS011;39642;47.556;18.728;2023-02-05T14:46:25;7.72;;;2.20;;
51248;SDS011;39642;47.556;18.728;2023-02-05T14:49:02;7.35;;;2.25;;
51248;SDS011;39642;47.556;18.728;2023-02-05T14:51:33;6.85;;;2.37;;
51248;SDS011;39642;47.556;18.728;2023-02-05T14:54:03;7.47;;;2.30;;
51248;SDS011;39642;47.556;18.728;2023-02-05T14:56:42;7.50;;;2.40;;
51248;SDS011;39642;47.556;18.728;2023-02-05T15:02:03;7.07;;;2.20;;
51248;SDS011;39642;47.556;18.728;2023-02-05T15:04:33;7.05;;;2.10;;
51248;SDS011;39642;47.556;18.728;2023-02-05T15:07:29;7.57;;;2.40;;
51248;SDS011;39642;47.556;18.728;2023-02-05T15:09:59;8.13;;;2.30;;
51248;SDS011;39642;47.556;18.728;2023-02-05T15:14:57;7.78;;;2.30;;
51248;SDS011;39642;47.556;18.728;2023-02-05T15:20:04;7.22;;;2.15;;
51248;SDS011;39642;47.556;18.728;2023-02-05T15:22:46;7.03;;;1.92;;
51248;SDS011;39642;47.556;18.728;2023-02-05T15:25:38;7.28;;;2.20;;
51248;SDS011;39642;47.556;18.728;2023-02-05T15:30:52;8.15;;;2.22;;
51248;SDS011;39642;47.556;18.728;2023-02-05T15:36:39;7.93;;;2.30;;
51248;SDS011;39642;47.556;18.728;2023-02-05T15:39:15;8.15;;;2.20;;
51248;SDS011;39642;47.556;18.728;2023-02-05T15:41:49;8.20;;;2.20;;
51248;SDS011;39642;47.556;18.728;2023-02-05T15:44:25;7.07;;;2.17;;
51248;SDS011;39642;47.556;18.728;2023-02-05T15:47:03;7.90;;;2.10;;
51248;SDS011;39642;47.556;18.728;2023-02-05T15:49:37;8.63;;;2.30;;
51248;SDS011;39642;47.556;18.728;2023-02-05T15:52:13;7.57;;;2.40;;
51248;SDS011;39642;47.556;18.728;2023-02-05T15:54:42;7.93;;;2.20;;
51248;SDS011;39642;47.556;18.728;2023-02-05T15:57:11;8.40;;;2.45;;
51248;SDS011;39642;47.556;18.728;2023-02-05T16:00:03;8.10;;;2.20;;
51248;SDS011;39642;47.556;18.728;2023-02-05T16:02:34;6.80;;;2.20;;
51248;SDS011;39642;47.556;18.728;2023-02-05T16:05:17;8.43;;;2.50;;
51248;SDS011;39642;47.556;18.728;2023-02-05T16:07:45;7.95;;;2.45;;
51248;SDS011;39642;47.556;18.728;2023-02-05T16:10:18;7.68;;;2.30;;
51248;SDS011;39642;47.556;18.728;2023-02-05T16:13:05;7.03;;;2.15;;
51248;SDS011;39642;47.556;18.728;2023-02-05T16:15:45;7.40;;;2.37;;
51248;SDS011;39642;47.556;18.728;2023-02-05T16:18:17;7.53;;;2.20;;
51248;SDS011;39642;47.556;18.728;2023-02-05T16:20:45;7.57;;;2.23;;
51248;SDS011;39642;47.556;18.728;2023-02-05T16:23:32;8.93;;;2.20;;
51248;SDS011;39642;47.556;18.728;2023-02-05T16:29:11;6.82;;;2.33;;
51248;SDS011;39642;47.556;18.728;2023-02-05T16:31:44;8.00;;;2.45;;
51248;SDS011;39642;47.556;18.728;2023-02-05T16:34:17;7.82;;;2.47;;
51248;SDS011;39642;47.556;18.728;2023-02-05T16:36:46;7.82;;;2.40;;
51248;SDS011;39642;47.556;18.728;2023-02-05T16:39:24;8.20;;;2.50;;
51248;SDS011;39642;47.556;18.728;2023-02-05T16:42:01;8.55;;;2.75;;
51248;SDS011;39642;47.556;18.728;2023-02-05T16:44:29;7.75;;;2.47;;
51248;SDS011;39642;47.556;18.728;2023-02-05T16:47:14;7.40;;;2.30;;
51248;SDS011;39642;47.556;18.728;2023-02-05T16:49:43;8.43;;;2.55;;
51248;SDS011;39642;47.556;18.728;2023-02-05T16:52:33;7.95;;;2.40;;
51248;SDS011;39642;47.556;18.728;2023-02-05T16:55:03;9.23;;;2.40;;
51248;SDS011;39642;47.556;18.728;2023-02-05T16:57:34;8.75;;;2.85;;
51248;SDS011;39642;47.556;18.728;2023-02-05T17:00:03;8.85;;;2.78;;
51248;SDS011;39642;47.556;18.728;2023-02-05T17:02:39;9.05;;;2.90;;
51248;SDS011;39642;47.556;18.728;2023-02-05T17:05:07;8.30;;;2.47;;
51248;SDS011;39642;47.556;18.728;2023-02-05T17:07:57;9.10;;;2.72;;
51248;SDS011;39642;47.556;18.728;2023-02-05T17:10:24;9.40;;;2.67;;
51248;SDS011;39642;47.556;18.728;2023-02-05T17:12:55;7.95;;;2.50;;
51248;SDS011;39642;47.556;18.728;2023-02-05T17:15:31;9.00;;;2.92;;
51248;SDS011;39642;47.556;18.728;2023-02-05T17:18:18;7.82;;;2.65;;